Time;durP1;ratioP1;P1;durP2;ratioP2;P2;SDS_P1;SDS_P2;PMS_P1;PMS_P2;Temp;Humidity;BMP_temperature;BMP_pressure;BME280_temperature;BME280_humidity;BME280_pressure;Samples;Min_cycle;Max_cycle;Signal;HPM_P1;HPM_P2
2023/05/04 00:00:06;;;;;;;12.98;4.70;;;;;;;;;;5074587;28;20044;-69
2023/05/04 00:02:32;;;;;;;9.55;4.88;;;;;;;;;;5075074;28;20324;-69
2023/05/04 00:04:58;;;;;;;10.05;4.97;;;;;;;;;;5064278;28;20120;-69
2023/05/04 00:07:24;;;;;;;11.35;4.80;;;;;;;;;;5063005;28;20201;-69
2023/05/04 00:09:50;;;;;;;13.27;5.28;;;;;;;;;;5062502;28;20040;-69
2023/05/04 00:12:17;;;;;;;21.77;5.90;;;;;;;;;;5065954;28;20123;-69
2023/05/04 00:14:43;;;;;;;9.75;5.28;;;;;;;;;;5063448;28;20055;-70
2023/05/04 00:17:09;;;;;;;9.75;4.60;;;;;;;;;;5063720;28;20487;-69
2023/05/04 00:19:38;;;;;;;12.30;5.55;;;;;;;;;;5064158;28;20411;-69
2023/05/04 00:22:04;;;;;;;13.05;5.22;;;;;;;;;;5063858;28;20114;-68
2023/05/04 00:24:30;;;;;;;14.23;5.90;;;;;;;;;;5063444;28;20143;-69
2023/05/04 00:26:56;;;;;;;12.13;5.43;;;;;;;;;;5069022;28;21776;-69
2023/05/04 00:29:22;;;;;;;10.05;5.30;;;;;;;;;;5033942;28;1101324;-69
2023/05/04 00:31:48;;;;;;;12.45;5.15;;;;;;;;;;5070724;28;20094;-69
2023/05/04 00:34:15;;;;;;;14.32;5.75;;;;;;;;;;5077973;27;20055;-69
2023/05/04 00:36:42;;;;;;;12.93;5.57;;;;;;;;;;5076321;28;20072;-69
2023/05/04 00:39:08;;;;;;;9.52;5.65;;;;;;;;;;5074841;27;20095;-69
2023/05/04 00:41:34;;;;;;;16.73;6.00;;;;;;;;;;5080245;28;20143;-69
2023/05/04 00:44:02;;;;;;;13.27;5.72;;;;;;;;;;5098559;27;20069;-69
2023/05/04 00:46:29;;;;;;;14.90;5.80;;;;;;;;;;5101067;28;20484;-69
2023/05/04 00:48:55;;;;;;;14.50;5.40;;;;;;;;;;5101955;28;20101;-69
2023/05/04 00:51:23;;;;;;;10.63;5.45;;;;;;;;;;5077198;28;20131;-69
2023/05/04 00:53:50;;;;;;;9.65;5.15;;;;;;;;;;5077548;28;20044;-69
2023/05/04 00:56:17;;;;;;;14.73;5.88;;;;;;;;;;5079769;28;20475;-69
2023/05/04 00:58:43;;;;;;;10.55;4.90;;;;;;;;;;5078847;28;20122;-69
2023/05/04 01:01:09;;;;;;;10.27;6.00;;;;;;;;;;5079786;28;20075;-69
2023/05/04 01:03:35;;;;;;;14.65;6.28;;;;;;;;;;5083963;28;20437;-69
2023/05/04 01:06:19;;;;;;;13.35;5.10;;;;;;;;;;5082861;28;20539;-69
2023/05/04 01:08:47;;;;;;;15.67;6.73;;;;;;;;;;5076095;28;20391;-69
2023/05/04 01:11:18;;;;;;;12.05;5.60;;;;;;;;;;5075646;28;20569;-69
2023/05/04 01:13:46;;;;;;;10.43;5.40;;;;;;;;;;5097335;28;20083;-69
2023/05/04 01:16:13;;;;;;;12.82;6.00;;;;;;;;;;5054679;28;20051;-70
2023/05/04 01:18:39;;;;;;;16.42;5.82;;;;;;;;;;5070363;28;20399;-69
2023/05/04 01:21:05;;;;;;;14.68;5.82;;;;;;;;;;5073836;28;20048;-69
2023/05/04 01:23:31;;;;;;;15.65;5.72;;;;;;;;;;5076329;28;20064;-70
2023/05/04 01:26:04;;;;;;;11.45;5.93;;;;;;;;;;5073585;28;20496;-69
2023/05/04 01:28:49;;;;;;;14.23;5.88;;;;;;;;;;5069134;28;20441;-69
2023/05/04 01:31:19;;;;;;;11.50;5.32;;;;;;;;;;5089935;27;20078;-69
2023/05/04 01:33:45;;;;;;;12.40;6.00;;;;;;;;;;5068935;28;20106;-69
2023/05/04 01:36:12;;;;;;;15.43;6.22;;;;;;;;;;5067343;28;20131;-69
2023/05/04 01:38:38;;;;;;;16.02;6.95;;;;;;;;;;5067859;28;20044;-69
2023/05/04 01:41:04;;;;;;;12.55;5.85;;;;;;;;;;5065976;28;20158;-69
2023/05/04 01:43:30;;;;;;;12.10;5.90;;;;;;;;;;5071742;28;20047;-69
2023/05/04 01:45:56;;;;;;;16.10;6.20;;;;;;;;;;5089278;28;20096;-69
2023/05/04 01:48:22;;;;;;;11.55;5.97;;;;;;;;;;5085904;28;20138;-69
2023/05/04 01:50:49;;;;;;;11.25;5.78;;;;;;;;;;5067155;28;20087;-69
2023/05/04 01:53:15;;;;;;;11.82;6.07;;;;;;;;;;5085622;28;20109;-69
2023/05/04 01:55:41;;;;;;;15.50;6.07;;;;;;;;;;5066291;28;20048;-69
2023/05/04 01:58:07;;;;;;;12.82;6.75;;;;;;;;;;5066507;28;20042;-69
2023/05/04 02:00:33;;;;;;;14.82;6.47;;;;;;;;;;5048840;28;20040;-69
2023/05/04 02:02:59;;;;;;;15.75;6.45;;;;;;;;;;5070872;28;20487;-69
2023/05/04 02:05:25;;;;;;;13.80;6.43;;;;;;;;;;5085757;28;20050;-69
2023/05/04 02:07:51;;;;;;;14.60;6.45;;;;;;;;;;5085054;28;20146;-69
2023/05/04 02:10:18;;;;;;;11.95;6.07;;;;;;;;;;5072385;28;20080;-69
2023/05/04 02:12:45;;;;;;;14.20;6.00;;;;;;;;;;5067272;28;20036;-69
2023/05/04 02:15:11;;;;;;;11.77;5.93;;;;;;;;;;5069633;28;20052;-69
2023/05/04 02:17:37;;;;;;;11.50;6.25;;;;;;;;;;5069878;28;20123;-69
2023/05/04 02:20:04;;;;;;;13.18;6.40;;;;;;;;;;5066893;28;20044;-69
2023/05/04 02:22:30;;;;;;;12.85;6.40;;;;;;;;;;5065487;28;20561;-68
2023/05/04 02:24:56;;;;;;;16.42;6.45;;;;;;;;;;5067350;28;20125;-69
2023/05/04 02:27:22;;;;;;;10.90;6.03;;;;;;;;;;5082737;28;20043;-69
2023/05/04 02:29:48;;;;;;;12.48;5.90;;;;;;;;;;5065159;28;20077;-69
2023/05/04 02:32:14;;;;;;;18.55;6.70;;;;;;;;;;5066227;28;20062;-69
2023/05/04 02:34:40;;;;;;;14.57;6.15;;;;;;;;;;5062439;28;20088;-69
2023/05/04 02:37:06;;;;;;;13.02;6.18;;;;;;;;;;5072892;28;20060;-70
2023/05/04 02:39:32;;;;;;;10.88;6.03;;;;;;;;;;5075970;28;20051;-69
2023/05/04 02:41:59;;;;;;;11.80;6.32;;;;;;;;;;5086196;28;20136;-69
2023/05/04 02:44:25;;;;;;;14.90;6.78;;;;;;;;;;5075359;28;20036;-69
2023/05/04 02:46:51;;;;;;;15.25;6.97;;;;;;;;;;5097075;28;20043;-69
2023/05/04 02:49:17;;;;;;;15.63;7.53;;;;;;;;;;5100420;28;20402;-69
2023/05/04 02:51:43;;;;;;;11.48;6.55;;;;;;;;;;5077045;28;20040;-69
2023/05/04 02:54:09;;;;;;;13.05;6.93;;;;;;;;;;5080464;28;20185;-69
2023/05/04 02:56:35;;;;;;;10.45;6.55;;;;;;;;;;5098882;28;20062;-69
2023/05/04 02:59:01;;;;;;;14.20;7.10;;;;;;;;;;5076957;28;20048;-70
2023/05/04 03:01:28;;;;;;;14.38;6.43;;;;;;;;;;5080051;28;20051;-69
2023/05/04 03:03:54;;;;;;;9.50;6.40;;;;;;;;;;5077298;28;20040;-69
2023/05/04 03:06:20;;;;;;;12.55;6.95;;;;;;;;;;5101586;28;20044;-69
2023/05/04 03:08:46;;;;;;;12.45;6.45;;;;;;;;;;5084055;28;20043;-69
2023/05/04 03:11:12;;;;;;;13.93;6.18;;;;;;;;;;5056258;28;20044;-69
2023/05/04 03:13:38;;;;;;;16.30;7.03;;;;;;;;;;5082658;28;20490;-69
2023/05/04 03:16:04;;;;;;;11.98;7.45;;;;;;;;;;5066883;28;20146;-69
2023/05/04 03:18:30;;;;;;;14.65;6.50;;;;;;;;;;5065915;27;20156;-69
2023/05/04 03:20:57;;;;;;;14.00;7.38;;;;;;;;;;5087340;27;20051;-69
2023/05/04 03:23:23;;;;;;;11.50;6.78;;;;;;;;;;5084841;28;20054;-69
2023/05/04 03:25:49;;;;;;;13.57;6.50;;;;;;;;;;5066166;28;20150;-69
2023/05/04 03:28:15;;;;;;;16.63;7.18;;;;;;;;;;5066332;28;20055;-69
2023/05/04 03:30:41;;;;;;;12.45;6.82;;;;;;;;;;5089449;28;20082;-69
2023/05/04 03:33:07;;;;;;;13.90;6.97;;;;;;;;;;5075757;28;20044;-69
2023/05/04 03:35:34;;;;;;;17.55;7.60;;;;;;;;;;5050015;28;20051;-69
2023/05/04 03:38:00;;;;;;;16.15;7.75;;;;;;;;;;5086763;28;21886;-69
2023/05/04 03:40:26;;;;;;;17.50;6.97;;;;;;;;;;5084609;27;20044;-69
2023/05/04 03:42:52;;;;;;;15.77;7.40;;;;;;;;;;5070976;28;20043;-69
2023/05/04 03:45:18;;;;;;;11.20;7.05;;;;;;;;;;5069661;28;20082;-69
2023/05/04 03:47:44;;;;;;;15.10;6.90;;;;;;;;;;5085454;28;20032;-69
2023/05/04 03:50:12;;;;;;;15.68;7.35;;;;;;;;;;5067158;28;20055;-69
2023/05/04 03:52:38;;;;;;;14.25;7.82;;;;;;;;;;5071673;28;20126;-69
2023/05/04 03:55:04;;;;;;;18.58;8.05;;;;;;;;;;5068529;28;20058;-69
2023/05/04 03:57:30;;;;;;;14.10;7.57;;;;;;;;;;5071264;28;20040;-69
2023/05/04 03:59:56;;;;;;;17.35;8.57;;;;;;;;;;5052857;28;20044;-69
2023/05/04 04:02:23;;;;;;;15.20;7.90;;;;;;;;;;5086715;28;20042;-69
2023/05/04 04:04:49;;;;;;;19.38;7.97;;;;;;;;;;5066665;28;20063;-69
2023/05/04 04:07:15;;;;;;;16.38;7.38;;;;;;;;;;5086145;28;20044;-69
2023/05/04 04:09:41;;;;;;;18.25;9.13;;;;;;;;;;5067454;28;20075;-69
2023/05/04 04:12:07;;;;;;;18.13;8.52;;;;;;;;;;5066375;28;20048;-69
2023/05/04 04:14:33;;;;;;;15.25;7.20;;;;;;;;;;5067917;28;20443;-69
2023/05/04 04:16:59;;;;;;;15.63;7.90;;;;;;;;;;5088186;28;20051;-69
2023/05/04 04:19:25;;;;;;;16.90;8.23;;;;;;;;;;5066287;28;20108;-69
2023/05/04 04:21:51;;;;;;;17.58;8.40;;;;;;;;;;5070345;28;20047;-69
2023/05/04 04:24:18;;;;;;;16.80;7.85;;;;;;;;;;5066225;28;20044;-68
2023/05/04 04:26:44;;;;;;;14.13;8.10;;;;;;;;;;5066687;28;20051;-69
2023/05/04 04:29:11;;;;;;;16.67;7.88;;;;;;;;;;5065745;28;21279;-69
2023/05/04 04:31:38;;;;;;;15.77;7.45;;;;;;;;;;5066375;28;20060;-69
2023/05/04 04:34:05;;;;;;;17.02;7.82;;;;;;;;;;5067703;28;20051;-69
2023/05/04 04:36:31;;;;;;;13.68;7.72;;;;;;;;;;5073595;28;20082;-69
2023/05/04 04:38:57;;;;;;;21.08;8.95;;;;;;;;;;5059470;28;20070;-69
2023/05/04 04:41:23;;;;;;;13.95;7.88;;;;;;;;;;5076941;28;20395;-69
2023/05/04 04:43:50;;;;;;;18.17;8.35;;;;;;;;;;5104614;27;20771;-69
2023/05/04 04:46:16;;;;;;;15.75;7.65;;;;;;;;;;5101193;28;20445;-69
2023/05/04 04:48:42;;;;;;;16.08;7.90;;;;;;;;;;5097856;28;20036;-69
2023/05/04 04:51:10;;;;;;;19.85;9.27;;;;;;;;;;5080259;28;20058;-69
2023/05/04 04:53:36;;;;;;;14.55;7.68;;;;;;;;;;5080703;28;20631;-69
2023/05/04 04:56:02;;;;;;;21.20;8.95;;;;;;;;;;5099327;28;20040;-69
2023/05/04 04:58:28;;;;;;;17.10;8.52;;;;;;;;;;5101136;28;20490;-69
2023/05/04 05:00:57;;;;;;;16.77;8.27;;;;;;;;;;5079448;28;20054;-69
2023/05/04 05:03:23;;;;;;;15.90;8.13;;;;;;;;;;5071975;28;20040;-69
2023/05/04 05:05:49;;;;;;;14.90;7.75;;;;;;;;;;5064665;28;20055;-70
2023/05/04 05:08:16;;;;;;;16.40;8.10;;;;;;;;;;5102233;28;20035;-69
2023/05/04 05:10:42;;;;;;;16.73;7.90;;;;;;;;;;5098139;27;20161;-69
2023/05/04 05:13:08;;;;;;;23.55;9.07;;;;;;;;;;5065870;28;20122;-69
2023/05/04 05:15:34;;;;;;;16.33;8.13;;;;;;;;;;5067731;28;20058;-69
2023/05/04 05:18:01;;;;;;;15.65;8.68;;;;;;;;;;5068191;28;20157;-70
2023/05/04 05:20:27;;;;;;;14.48;7.53;;;;;;;;;;5069013;28;20129;-71
2023/05/04 05:22:53;;;;;;;15.77;8.07;;;;;;;;;;5064765;28;20044;-68
2023/05/04 05:25:19;;;;;;;17.95;9.00;;;;;;;;;;5084595;27;20450;-68
2023/05/04 05:27:45;;;;;;;15.90;9.50;;;;;;;;;;5073077;28;20036;-68
2023/05/04 05:30:12;;;;;;;16.48;7.72;;;;;;;;;;5094205;28;20070;-68
2023/05/04 05:32:38;;;;;;;14.70;7.78;;;;;;;;;;5072117;28;20058;-67
2023/05/04 05:35:05;;;;;;;18.25;8.85;;;;;;;;;;5092459;28;20066;-68
2023/05/04 05:37:31;;;;;;;15.00;8.90;;;;;;;;;;5069414;28;20044;-68
2023/05/04 05:39:57;;;;;;;15.00;7.90;;;;;;;;;;5078986;28;20104;-68
2023/05/04 05:42:24;;;;;;;16.15;8.00;;;;;;;;;;5077296;28;20036;-68
2023/05/04 05:44:50;;;;;;;13.20;7.63;;;;;;;;;;5101662;28;20149;-68
2023/05/04 05:47:16;;;;;;;16.58;8.02;;;;;;;;;;5072767;28;20048;-68
2023/05/04 05:49:43;;;;;;;15.90;7.80;;;;;;;;;;5081470;28;20048;-70
2023/05/04 05:52:09;;;;;;;15.02;8.00;;;;;;;;;;5092859;27;20206;-68
2023/05/04 05:54:35;;;;;;;18.40;7.60;;;;;;;;;;5080963;28;20040;-67
2023/05/04 05:57:01;;;;;;;15.60;8.30;;;;;;;;;;5078111;28;20504;-67
2023/05/04 05:59:27;;;;;;;14.70;7.93;;;;;;;;;;5072747;28;20047;-68
2023/05/04 06:01:53;;;;;;;15.77;8.13;;;;;;;;;;5068909;28;20414;-68
2023/05/04 06:04:19;;;;;;;15.25;7.57;;;;;;;;;;5065355;28;20040;-69
2023/05/04 06:06:46;;;;;;;12.13;7.03;;;;;;;;;;5073322;28;20408;-70
2023/05/04 06:09:12;;;;;;;17.52;7.22;;;;;;;;;;5090874;27;20147;-70
2023/05/04 06:11:38;;;;;;;16.88;7.45;;;;;;;;;;5089248;28;20070;-64
2023/05/04 06:14:04;;;;;;;17.35;6.40;;;;;;;;;;5090320;28;20428;-67
2023/05/04 06:16:30;;;;;;;14.63;6.70;;;;;;;;;;5074774;28;20126;-64
2023/05/04 06:18:57;;;;;;;12.43;5.97;;;;;;;;;;5087586;28;20153;-67
2023/05/04 06:21:24;;;;;;;15.52;7.55;;;;;;;;;;5070842;28;20044;-67
2023/05/04 06:23:50;;;;;;;13.70;6.78;;;;;;;;;;5068394;28;20123;-67
2023/05/04 06:26:18;;;;;;;22.35;7.13;;;;;;;;;;5087977;28;20051;-67
2023/05/04 06:28:45;;;;;;;20.65;7.50;;;;;;;;;;5072547;28;20048;-67
2023/05/04 06:31:12;;;;;;;14.75;7.28;;;;;;;;;;5091903;28;20052;-67
2023/05/04 06:33:38;;;;;;;17.00;6.80;;;;;;;;;;5069778;28;20126;-67
2023/05/04 06:36:05;;;;;;;16.65;6.82;;;;;;;;;;5062564;28;20052;-67
2023/05/04 06:38:31;;;;;;;15.98;7.15;;;;;;;;;;5088397;28;20048;-67
2023/05/04 06:40:57;;;;;;;12.98;5.80;;;;;;;;;;5074854;28;20067;-67
2023/05/04 06:43:23;;;;;;;17.17;6.45;;;;;;;;;;5070752;28;20051;-66
2023/05/04 06:45:49;;;;;;;16.65;7.07;;;;;;;;;;5088543;28;20047;-66
2023/05/04 06:48:17;;;;;;;12.98;6.22;;;;;;;;;;5092835;28;20123;-66
2023/05/04 06:50:44;;;;;;;16.50;7.18;;;;;;;;;;5089216;28;20055;-67
2023/05/04 06:53:10;;;;;;;16.65;7.10;;;;;;;;;;5074921;28;20043;-66
2023/05/04 06:55:37;;;;;;;12.65;7.07;;;;;;;;;;5098178;28;20534;-66
2023/05/04 06:58:04;;;;;;;14.27;6.88;;;;;;;;;;5098196;27;20047;-66
2023/05/04 07:00:30;;;;;;;13.70;7.32;;;;;;;;;;5076691;28;20387;-66
2023/05/04 07:02:57;;;;;;;17.77;7.50;;;;;;;;;;5072728;28;20509;-69
2023/05/04 07:05:23;;;;;;;15.60;7.97;;;;;;;;;;5091515;28;20044;-66
2023/05/04 07:07:49;;;;;;;13.30;7.63;;;;;;;;;;5096370;28;20082;-65
2023/05/04 07:10:16;;;;;;;15.15;6.63;;;;;;;;;;5080933;27;20141;-66
2023/05/04 07:12:42;;;;;;;11.88;6.70;;;;;;;;;;5075066;27;20043;-66
2023/05/04 07:15:09;;;;;;;17.98;7.93;;;;;;;;;;5091521;27;20046;-66
2023/05/04 07:17:36;;;;;;;19.35;7.35;;;;;;;;;;5057522;28;20048;-66
2023/05/04 07:20:03;;;;;;;15.93;7.32;;;;;;;;;;5090624;27;20227;-66
2023/05/04 07:22:30;;;;;;;15.27;7.88;;;;;;;;;;5085804;28;20101;-66
2023/05/04 07:24:57;;;;;;;15.85;7.15;;;;;;;;;;5098430;27;20044;-65
2023/05/04 07:27:23;;;;;;;20.98;8.20;;;;;;;;;;5068821;28;20124;-65
2023/05/04 07:29:49;;;;;;;13.48;6.90;;;;;;;;;;5067557;28;20044;-65
2023/05/04 07:32:16;;;;;;;16.05;6.72;;;;;;;;;;5071112;28;20119;-66
2023/05/04 07:34:44;;;;;;;16.88;7.47;;;;;;;;;;5067275;28;20048;-68
2023/05/04 07:37:10;;;;;;;13.35;6.63;;;;;;;;;;5072006;28;20044;-66
2023/05/04 07:39:37;;;;;;;14.85;8.07;;;;;;;;;;5072259;28;20041;-66
2023/05/04 07:42:03;;;;;;;13.98;6.88;;;;;;;;;;5070938;28;20044;-69
2023/05/04 07:44:30;;;;;;;18.33;8.13;;;;;;;;;;5067957;28;20041;-66
2023/05/04 07:46:58;;;;;;;15.13;7.55;;;;;;;;;;5069365;28;20147;-66
2023/05/04 07:49:24;;;;;;;18.50;8.40;;;;;;;;;;5071715;28;20143;-66
2023/05/04 07:51:50;;;;;;;11.52;6.80;;;;;;;;;;5069408;28;20130;-66
2023/05/04 07:54:16;;;;;;;18.13;7.07;;;;;;;;;;5052028;28;20063;-66
2023/05/04 07:56:43;;;;;;;13.45;7.13;;;;;;;;;;5079156;28;20400;-66
2023/05/04 07:59:09;;;;;;;12.32;5.97;;;;;;;;;;5080344;28;20510;-66
2023/05/04 08:01:35;;;;;;;14.00;7.32;;;;;;;;;;5073224;28;20050;-66
2023/05/04 08:04:01;;;;;;;11.90;6.78;;;;;;;;;;5069346;28;20037;-67
2023/05/04 08:06:27;;;;;;;18.73;6.82;;;;;;;;;;5071326;28;20051;-66
2023/05/04 08:08:53;;;;;;;17.13;7.35;;;;;;;;;;5071193;28;20530;-66
2023/05/04 08:11:20;;;;;;;15.02;7.30;;;;;;;;;;5085432;28;20499;-66
2023/05/04 08:13:47;;;;;;;16.20;7.20;;;;;;;;;;5072000;28;20093;-67
2023/05/04 08:16:13;;;;;;;14.18;7.38;;;;;;;;;;5073529;28;20036;-67
2023/05/04 08:18:39;;;;;;;12.43;6.03;;;;;;;;;;5073771;28;20116;-66
2023/05/04 08:21:05;;;;;;;11.75;6.68;;;;;;;;;;5070052;28;20048;-66
2023/05/04 08:23:32;;;;;;;19.73;7.13;;;;;;;;;;5074477;28;20049;-67
2023/05/04 08:26:01;;;;;;;11.95;7.03;;;;;;;;;;5069043;28;20052;-66
2023/05/04 08:28:29;;;;;;;14.35;7.05;;;;;;;;;;5070240;28;20123;-67
2023/05/04 08:30:55;;;;;;;18.70;6.78;;;;;;;;;;5067000;28;20060;-68
2023/05/04 08:33:21;;;;;;;14.90;6.68;;;;;;;;;;5076020;28;20386;-68
2023/05/04 08:35:47;;;;;;;16.25;7.63;;;;;;;;;;5050754;28;20328;-69
2023/05/04 08:38:13;;;;;;;15.68;6.60;;;;;;;;;;5068255;28;20119;-68
2023/05/04 08:40:42;;;;;;;11.55;7.22;;;;;;;;;;5067305;28;20138;-70
2023/05/04 08:43:08;;;;;;;13.50;6.95;;;;;;;;;;5068901;28;20071;-69
2023/05/04 08:45:38;;;;;;;15.23;6.22;;;;;;;;;;5067169;28;20458;-69
2023/05/04 08:48:06;;;;;;;14.35;6.25;;;;;;;;;;5069577;28;20114;-69
2023/05/04 08:50:34;;;;;;;15.25;7.40;;;;;;;;;;5068210;28;20052;-70
2023/05/04 08:53:02;;;;;;;16.10;7.38;;;;;;;;;;5067223;28;20393;-69
2023/05/04 08:55:32;;;;;;;11.98;6.90;;;;;;;;;;5085313;27;20142;-70
2023/05/04 08:57:59;;;;;;;14.80;6.57;;;;;;;;;;5068258;28;20134;-70
2023/05/04 09:00:26;;;;;;;12.52;7.53;;;;;;;;;;5077791;28;20044;-70
2023/05/04 09:02:52;;;;;;;13.57;6.70;;;;;;;;;;5067887;28;20075;-69
2023/05/04 09:05:19;;;;;;;18.88;7.93;;;;;;;;;;5068725;28;20048;-70
2023/05/04 09:07:47;;;;;;;13.15;6.53;;;;;;;;;;5069900;28;20044;-68
2023/05/04 09:10:13;;;;;;;13.60;6.55;;;;;;;;;;5069398;28;20048;-68
2023/05/04 09:12:39;;;;;;;13.23;6.32;;;;;;;;;;5067611;28;20135;-65
2023/05/04 09:15:14;;;;;;;14.40;6.28;;;;;;;;;;5070965;28;20472;-68
2023/05/04 09:17:40;;;;;;;12.98;6.55;;;;;;;;;;5067322;28;20149;-67
2023/05/04 09:20:06;;;;;;;11.35;6.72;;;;;;;;;;5068794;28;20055;-68
2023/05/04 09:22:33;;;;;;;11.18;5.82;;;;;;;;;;5069053;28;21355;-68
2023/05/04 09:25:06;;;;;;;12.95;7.03;;;;;;;;;;5070345;28;20476;-68
2023/05/04 09:27:33;;;;;;;15.35;6.47;;;;;;;;;;5066612;28;20052;-68
2023/05/04 09:29:59;;;;;;;12.38;5.93;;;;;;;;;;5071755;28;20055;-68
2023/05/04 09:32:25;;;;;;;14.18;6.18;;;;;;;;;;5073839;28;20138;-68
2023/05/04 09:34:52;;;;;;;12.80;6.07;;;;;;;;;;5071280;28;20044;-68
2023/05/04 09:37:19;;;;;;;12.77;6.25;;;;;;;;;;5070512;28;20044;-68
2023/05/04 09:39:51;;;;;;;13.70;7.30;;;;;;;;;;5066853;28;20044;-68
2023/05/04 09:42:17;;;;;;;14.55;6.30;;;;;;;;;;5069983;28;20059;-68
2023/05/04 09:44:44;;;;;;;11.82;6.30;;;;;;;;;;5068646;28;20404;-68
2023/05/04 09:47:10;;;;;;;16.88;6.85;;;;;;;;;;5069489;28;20048;-68
2023/05/04 09:49:37;;;;;;;11.25;5.70;;;;;;;;;;5069871;28;20045;-68
2023/05/04 09:52:04;;;;;;;12.65;6.25;;;;;;;;;;5069303;28;20060;-68
2023/05/04 09:54:33;;;;;;;12.63;5.80;;;;;;;;;;5074599;28;20045;-68
2023/05/04 09:57:05;;;;;;;9.82;5.15;;;;;;;;;;5071298;28;21285;-68
2023/05/04 09:59:32;;;;;;;14.20;5.63;;;;;;;;;;5069933;28;20597;-68
2023/05/04 10:01:59;;;;;;;10.90;5.75;;;;;;;;;;5070322;28;20048;-68
2023/05/04 10:04:25;;;;;;;12.52;5.50;;;;;;;;;;5069528;28;20048;-68
2023/05/04 10:06:53;;;;;;;11.35;5.47;;;;;;;;;;5074084;28;20425;-68
2023/05/04 10:09:20;;;;;;;13.40;6.00;;;;;;;;;;5069187;28;20037;-68
2023/05/04 10:11:47;;;;;;;12.48;5.53;;;;;;;;;;5068690;28;20048;-68
2023/05/04 10:14:14;;;;;;;11.73;6.55;;;;;;;;;;5067071;28;20071;-68
2023/05/04 10:16:47;;;;;;;15.07;6.32;;;;;;;;;;5067861;28;20549;-68
2023/05/04 10:19:24;;;;;;;10.00;5.82;;;;;;;;;;5070258;28;20035;-68
2023/05/04 10:21:58;;;;;;;13.93;5.07;;;;;;;;;;5073482;28;20503;-68
2023/05/04 10:24:33;;;;;;;15.75;5.25;;;;;;;;;;5079672;28;20045;-68
2023/05/04 10:27:14;;;;;;;11.43;5.60;;;;;;;;;;5078576;28;20048;-68
2023/05/04 10:29:41;;;;;;;12.35;5.35;;;;;;;;;;5072032;28;20067;-69
2023/05/04 10:32:19;;;;;;;11.90;4.85;;;;;;;;;;5077578;28;20056;-69
2023/05/04 10:34:46;;;;;;;9.00;6.22;;;;;;;;;;5075843;28;20028;-68
2023/05/04 10:37:16;;;;;;;18.65;5.50;;;;;;;;;;5073020;28;20079;-70
2023/05/04 10:39:49;;;;;;;13.18;5.00;;;;;;;;;;5072387;28;20032;-71
2023/05/04 10:42:15;;;;;;;12.88;5.78;;;;;;;;;;5072711;28;20510;-70
2023/05/04 10:44:51;;;;;;;10.00;4.38;;;;;;;;;;5072731;28;20048;-70
2023/05/04 10:47:27;;;;;;;12.00;5.30;;;;;;;;;;5071433;28;20400;-70
2023/05/04 10:50:01;;;;;;;10.68;4.70;;;;;;;;;;5073197;28;20395;-70
2023/05/04 10:52:27;;;;;;;10.05;4.72;;;;;;;;;;5073172;28;20051;-70
2023/05/04 10:54:59;;;;;;;9.23;5.00;;;;;;;;;;5076022;28;20056;-71
2023/05/04 10:57:27;;;;;;;7.00;3.92;;;;;;;;;;5073593;28;20045;-70
2023/05/04 10:59:55;;;;;;;11.55;3.88;;;;;;;;;;5071353;28;20044;-69
2023/05/04 11:02:22;;;;;;;10.00;3.95;;;;;;;;;;5071262;28;20113;-68
2023/05/04 11:05:00;;;;;;;9.52;4.22;;;;;;;;;;5074734;28;20055;-69
2023/05/04 11:07:36;;;;;;;12.02;4.55;;;;;;;;;;5074491;28;20048;-69
2023/05/04 11:10:03;;;;;;;12.32;4.80;;;;;;;;;;5076955;28;20060;-69
2023/05/04 11:12:30;;;;;;;7.80;4.07;;;;;;;;;;5069547;28;20171;-68
2023/05/04 11:15:03;;;;;;;9.10;4.10;;;;;;;;;;5071188;28;20152;-69
2023/05/04 11:17:29;;;;;;;8.43;3.90;;;;;;;;;;5071299;28;20130;-68
2023/05/04 11:19:55;;;;;;;7.65;2.90;;;;;;;;;;5070508;28;20064;-69
2023/05/04 11:22:22;;;;;;;11.25;4.13;;;;;;;;;;5070661;28;20052;-69
2023/05/04 11:24:48;;;;;;;8.07;4.38;;;;;;;;;;5082031;28;20072;-68
2023/05/04 11:27:22;;;;;;;9.38;4.53;;;;;;;;;;5075478;28;20055;-69
2023/05/04 11:29:57;;;;;;;10.95;4.55;;;;;;;;;;5075444;28;20056;-68
2023/05/04 11:32:33;;;;;;;9.35;3.90;;;;;;;;;;5069228;28;20036;-69
2023/05/04 11:34:59;;;;;;;12.05;4.25;;;;;;;;;;5071583;28;20113;-69
2023/05/04 11:37:28;;;;;;;9.18;3.30;;;;;;;;;;5072002;28;20056;-67
2023/05/04 11:39:54;;;;;;;10.68;3.55;;;;;;;;;;5076459;28;20040;-69
2023/05/04 11:42:21;;;;;;;10.57;3.30;;;;;;;;;;5074258;28;20040;-66
2023/05/04 11:44:47;;;;;;;11.82;4.18;;;;;;;;;;5077425;28;20044;-68
2023/05/04 11:47:13;;;;;;;10.15;3.70;;;;;;;;;;5069359;28;20048;-70
2023/05/04 11:49:40;;;;;;;8.63;3.75;;;;;;;;;;5067274;28;20059;-67
2023/05/04 11:52:07;;;;;;;7.38;4.07;;;;;;;;;;5068514;28;20199;-66
2023/05/04 11:54:33;;;;;;;7.75;3.70;;;;;;;;;;5070072;28;20037;-65
2023/05/04 11:57:02;;;;;;;8.60;3.97;;;;;;;;;;5069470;28;20040;-65
2023/05/04 11:59:28;;;;;;;10.02;4.22;;;;;;;;;;5068057;28;20060;-67
2023/05/04 12:01:55;;;;;;;8.13;3.92;;;;;;;;;;5071098;28;20044;-67
2023/05/04 12:04:21;;;;;;;10.77;4.30;;;;;;;;;;5069403;28;20044;-67
2023/05/04 12:06:49;;;;;;;10.00;4.28;;;;;;;;;;5070069;28;20094;-67
2023/05/04 12:09:15;;;;;;;10.10;4.30;;;;;;;;;;5069881;28;20407;-67
2023/05/04 12:11:41;;;;;;;7.65;3.80;;;;;;;;;;5074007;28;20055;-67
2023/05/04 12:14:09;;;;;;;9.18;4.50;;;;;;;;;;5067444;28;20055;-67
2023/05/04 12:16:35;;;;;;;9.88;4.30;;;;;;;;;;5068645;28;21375;-67
2023/05/04 12:19:03;;;;;;;7.57;4.10;;;;;;;;;;5068592;28;20036;-67
2023/05/04 12:21:30;;;;;;;12.20;4.82;;;;;;;;;;5069645;28;20068;-67
2023/05/04 12:23:56;;;;;;;9.35;4.68;;;;;;;;;;5078051;28;20127;-67
2023/05/04 12:26:23;;;;;;;9.63;4.78;;;;;;;;;;5075372;28;20037;-67
2023/05/04 12:28:49;;;;;;;8.68;4.25;;;;;;;;;;5078589;28;20040;-67
2023/05/04 12:31:15;;;;;;;7.28;4.05;;;;;;;;;;5096058;28;20072;-67
2023/05/04 12:33:41;;;;;;;7.35;4.10;;;;;;;;;;5075676;28;20739;-66
2023/05/04 12:36:08;;;;;;;8.98;4.13;;;;;;;;;;5093080;27;20051;-67
2023/05/04 12:38:34;;;;;;;12.45;4.80;;;;;;;;;;5080524;27;20043;-65
2023/05/04 12:41:03;;;;;;;8.30;4.00;;;;;;;;;;5099229;27;20122;-65
2023/05/04 12:43:30;;;;;;;11.90;4.40;;;;;;;;;;5092700;27;20082;-66
2023/05/04 12:45:56;;;;;;;7.78;4.30;;;;;;;;;;5092767;28;20092;-66
2023/05/04 12:48:24;;;;;;;10.77;4.13;;;;;;;;;;5090072;27;20080;-67
2023/05/04 12:50:51;;;;;;;8.63;4.75;;;;;;;;;;5074651;28;20070;-67
2023/05/04 12:53:17;;;;;;;11.75;4.53;;;;;;;;;;5075693;27;20040;-67
2023/05/04 12:55:44;;;;;;;8.07;4.25;;;;;;;;;;5072264;28;20102;-67
2023/05/04 12:58:10;;;;;;;8.82;4.50;;;;;;;;;;5092507;27;20051;-65
2023/05/04 13:00:37;;;;;;;6.20;3.90;;;;;;;;;;5072914;28;20055;-66
2023/05/04 13:03:04;;;;;;;6.95;4.28;;;;;;;;;;5091945;28;20024;-66
2023/05/04 13:05:30;;;;;;;10.02;4.82;;;;;;;;;;5071209;27;20913;-66
2023/05/04 13:07:57;;;;;;;8.20;3.63;;;;;;;;;;5091321;27;20471;-66
2023/05/04 13:10:24;;;;;;;7.65;4.13;;;;;;;;;;5091481;28;20348;-73
2023/05/04 13:12:50;;;;;;;9.90;4.63;;;;;;;;;;5102461;28;20051;-65
2023/05/04 13:15:16;;;;;;;8.57;4.50;;;;;;;;;;5095244;27;20139;-66
2023/05/04 13:17:43;;;;;;;9.85;5.15;;;;;;;;;;5090370;27;20131;-66
2023/05/04 13:20:11;;;;;;;9.18;4.85;;;;;;;;;;5071585;28;20051;-66
2023/05/04 13:22:37;;;;;;;12.63;5.00;;;;;;;;;;5071531;28;20511;-66
2023/05/04 13:25:04;;;;;;;12.63;5.20;;;;;;;;;;5090846;28;20047;-65
2023/05/04 13:27:31;;;;;;;10.02;5.20;;;;;;;;;;5090818;28;20100;-66
2023/05/04 13:30:00;;;;;;;8.05;4.63;;;;;;;;;;5090423;27;20261;-66
2023/05/04 13:32:26;;;;;;;10.27;4.55;;;;;;;;;;5080747;28;20054;-65
2023/05/04 13:34:53;;;;;;;13.25;4.90;;;;;;;;;;5075763;28;20092;-65
2023/05/04 13:37:19;;;;;;;11.73;4.70;;;;;;;;;;5077884;28;20052;-65
2023/05/04 13:39:45;;;;;;;10.75;5.05;;;;;;;;;;5093124;27;20036;-66
2023/05/04 13:42:12;;;;;;;11.73;5.07;;;;;;;;;;5088802;28;20048;-66
2023/05/04 13:44:43;;;;;;;7.82;4.40;;;;;;;;;;5074547;28;20517;-65
2023/05/04 13:47:09;;;;;;;10.82;5.13;;;;;;;;;;5092312;28;20052;-66
2023/05/04 13:49:35;;;;;;;9.68;4.78;;;;;;;;;;5089948;27;20093;-66
2023/05/04 13:52:02;;;;;;;10.48;4.78;;;;;;;;;;5092152;28;20512;-66
2023/05/04 13:54:28;;;;;;;6.90;4.22;;;;;;;;;;5093918;27;20449;-66
2023/05/04 13:56:54;;;;;;;10.38;5.38;;;;;;;;;;5073955;28;20448;-65
2023/05/04 13:59:20;;;;;;;11.63;5.15;;;;;;;;;;5090606;28;20131;-65
2023/05/04 14:01:47;;;;;;;9.48;5.28;;;;;;;;;;5085141;28;20087;-66
2023/05/04 14:04:13;;;;;;;11.23;5.20;;;;;;;;;;5092745;28;20499;-66
2023/05/04 14:06:39;;;;;;;11.55;4.88;;;;;;;;;;5089324;27;20047;-67
2023/05/04 14:09:05;;;;;;;9.02;5.03;;;;;;;;;;5074501;28;20407;-66
2023/05/04 14:11:31;;;;;;;9.60;4.90;;;;;;;;;;5091805;28;20532;-66
2023/05/04 14:13:57;;;;;;;10.00;4.90;;;;;;;;;;5073968;28;20395;-66
2023/05/04 14:16:23;;;;;;;8.98;5.03;;;;;;;;;;5074778;28;20044;-66
2023/05/04 14:18:50;;;;;;;15.88;5.57;;;;;;;;;;5072281;28;20044;-66
2023/05/04 14:21:16;;;;;;;10.82;5.18;;;;;;;;;;5089507;28;20099;-66
2023/05/04 14:23:43;;;;;;;9.30;5.15;;;;;;;;;;5077021;28;20028;-66
2023/05/04 14:26:10;;;;;;;10.68;5.10;;;;;;;;;;5089421;28;20039;-66
2023/05/04 14:28:36;;;;;;;8.50;4.57;;;;;;;;;;5073519;28;20471;-66